Time;durP1;ratioP1;P1;durP2;ratioP2;P2;SDS_P1;SDS_P2;PMS_P1;PMS_P2;Temp;Humidity;BMP_temperature;BMP_pressure;BME280_temperature;BME280_humidity;BME280_pressure;Samples;Min_cycle;Max_cycle;Signal;HPM_P1;HPM_P2
2023/09/19 00:01:40;;;;;;;0.50;0.50;;;18.00;74.90;;;;;;5062585;28;20031;-68
2023/09/19 00:04:09;;;;;;;1.00;0.60;;;18.00;75.10;;;;;;5067321;28;20060;-67
2023/09/19 00:06:38;;;;;;;0.82;0.60;;;18.10;75.30;;;;;;5064148;28;20059;-67
2023/09/19 00:09:04;;;;;;;0.70;0.50;;;18.10;75.10;;;;;;5068866;28;20246;-68
2023/09/19 00:11:30;;;;;;;1.92;0.60;;;18.10;75.20;;;;;;5060778;28;20033;-67
2023/09/19 00:13:59;;;;;;;0.77;0.65;;;18.10;75.20;;;;;;5067421;28;20036;-65
2023/09/19 00:16:25;;;;;;;0.43;0.32;;;18.20;75.20;;;;;;5062522;28;20024;-65
2023/09/19 00:18:52;;;;;;;1.35;0.50;;;18.30;75.20;;;;;;5070226;28;20035;-67
2023/09/19 00:21:19;;;;;;;1.85;0.60;;;18.30;75.10;;;;;;5067066;28;20025;-68
2023/09/19 00:23:44;;;;;;;0.40;0.40;;;18.30;75.20;;;;;;5049370;28;20115;-68
2023/09/19 00:26:10;;;;;;;0.43;0.43;;;18.30;75.30;;;;;;5069682;28;20178;-68
2023/09/19 00:28:36;;;;;;;1.48;0.80;;;18.40;75.30;;;;;;5066685;28;20085;-68
2023/09/19 00:31:02;;;;;;;1.23;0.63;;;18.40;75.20;;;;;;5030606;28;20031;-68
2023/09/19 00:33:29;;;;;;;1.45;0.88;;;18.40;75.30;;;;;;5051171;28;20430;-67
2023/09/19 00:35:56;;;;;;;2.08;0.77;;;18.40;75.40;;;;;;5048694;28;20036;-68
2023/09/19 00:38:26;;;;;;;0.50;0.50;;;18.40;75.40;;;;;;5062854;28;20028;-68
2023/09/19 00:40:54;;;;;;;1.23;0.75;;;18.30;75.60;;;;;;5065372;28;20027;-67
2023/09/19 00:43:20;;;;;;;1.00;0.75;;;18.30;76.00;;;;;;5061319;28;20051;-67
2023/09/19 00:45:49;;;;;;;1.23;0.77;;;18.30;76.30;;;;;;5069387;28;20032;-65
2023/09/19 00:48:17;;;;;;;0.70;0.70;;;18.20;76.50;;;;;;5065307;28;20029;-64
2023/09/19 00:50:43;;;;;;;1.85;1.02;;;18.30;76.60;;;;;;5069714;28;20044;-66
2023/09/19 00:53:13;;;;;;;3.92;1.05;;;18.30;76.70;;;;;;5067363;28;20378;-65
2023/09/19 00:55:42;;;;;;;4.15;0.60;;;18.30;76.80;;;;;;5060159;28;20131;-65
2023/09/19 00:58:10;;;;;;;2.95;1.27;;;18.30;76.70;;;;;;5041918;28;20024;-65
2023/09/19 01:00:36;;;;;;;4.40;0.98;;;18.30;76.90;;;;;;5065169;28;20379;-65
2023/09/19 01:03:02;;;;;;;3.13;1.10;;;18.30;77.10;;;;;;5066521;28;20029;-65
2023/09/19 01:05:29;;;;;;;2.10;0.93;;;18.30;77.30;;;;;;5066960;28;20021;-65
2023/09/19 01:07:55;;;;;;;0.75;0.75;;;18.30;77.30;;;;;;5067457;28;20032;-65
2023/09/19 01:10:21;;;;;;;4.65;1.02;;;18.30;77.30;;;;;;5052340;28;20082;-64
2023/09/19 01:13:14;;;;;;;1.13;0.40;;;18.30;77.40;;;;;;5068910;28;20267;-65
2023/09/19 01:16:15;;;;;;;2.38;0.57;;;18.30;77.40;;;;;;5061257;28;20098;-65
2023/09/19 01:18:49;;;;;;;1.30;1.08;;;18.30;77.40;;;;;;5033274;28;20052;-65
2023/09/19 01:21:36;;;;;;;0.80;0.70;;;18.20;77.50;;;;;;5055629;28;20524;-68
2023/09/19 01:24:26;;;;;;;1.55;0.82;;;18.10;77.70;;;;;;5059329;28;20056;-67
2023/09/19 01:27:02;;;;;;;2.25;0.90;;;18.10;77.80;;;;;;5056574;28;20029;-65
2023/09/19 01:29:46;;;;;;;1.33;0.70;;;18.10;78.10;;;;;;5062992;28;20079;-68
2023/09/19 01:32:15;;;;;;;3.83;0.93;;;18.00;78.10;;;;;;5062631;28;20166;-69
2023/09/19 01:34:50;;;;;;;2.28;0.63;;;18.00;78.20;;;;;;5064296;28;20078;-69
2023/09/19 01:37:24;;;;;;;1.42;1.33;;;18.00;78.20;;;;;;5065942;28;20035;-69
2023/09/19 01:39:59;;;;;;;1.58;0.73;;;18.00;78.20;;;;;;5058112;28;20028;-70
2023/09/19 01:42:36;;;;;;;1.98;0.90;;;18.00;78.20;;;;;;5055904;28;20025;-69
2023/09/19 01:45:08;;;;;;;2.65;1.00;;;18.00;78.10;;;;;;5042201;28;20411;-69
2023/09/19 01:48:01;;;;;;;3.75;1.17;;;18.00;78.00;;;;;;5064004;28;20104;-67
2023/09/19 01:50:36;;;;;;;4.05;1.17;;;18.00;77.90;;;;;;5060486;28;20101;-64
2023/09/19 01:53:11;;;;;;;4.55;1.35;;;17.90;78.20;;;;;;5063475;28;20029;-65
2023/09/19 01:55:44;;;;;;;4.78;1.05;;;17.80;78.00;;;;;;5058248;28;20083;-68
2023/09/19 01:58:19;;;;;;;7.38;1.45;;;17.80;78.10;;;;;;5063460;28;20028;-68
2023/09/19 02:00:51;;;;;;;3.63;0.85;;;17.80;77.80;;;;;;5062829;28;21166;-65
2023/09/19 02:03:20;;;;;;;4.97;1.10;;;17.80;77.80;;;;;;5049742;28;20024;-65
2023/09/19 02:05:53;;;;;;;1.77;0.80;;;17.80;77.70;;;;;;5046057;28;20029;-68
2023/09/19 02:08:20;;;;;;;5.85;1.77;;;17.80;77.30;;;;;;5062323;28;20032;-65
2023/09/19 02:10:49;;;;;;;4.28;1.20;;;17.70;77.10;;;;;;5049231;28;20051;-65
2023/09/19 02:13:19;;;;;;;3.50;1.70;;;17.70;77.10;;;;;;5025739;28;20040;-65
2023/09/19 02:15:46;;;;;;;4.10;1.33;;;17.70;77.10;;;;;;5044401;28;20044;-68
2023/09/19 02:18:12;;;;;;;5.10;1.25;;;17.60;76.90;;;;;;5067324;28;20048;-67
2023/09/19 02:20:41;;;;;;;1.88;1.05;;;17.50;76.50;;;;;;5066995;28;20126;-67
2023/09/19 02:23:08;;;;;;;5.18;0.90;;;17.50;76.60;;;;;;5064653;28;20488;-67
2023/09/19 02:25:35;;;;;;;6.38;1.27;;;17.50;76.70;;;;;;5030165;28;20027;-67
2023/09/19 02:28:02;;;;;;;3.08;0.98;;;17.50;76.60;;;;;;5066474;28;20040;-68
2023/09/19 02:30:28;;;;;;;4.30;1.65;;;17.40;76.50;;;;;;5065541;28;20026;-67
2023/09/19 02:32:54;;;;;;;3.03;1.13;;;17.40;76.30;;;;;;5045748;28;20044;-65
2023/09/19 02:35:20;;;;;;;6.78;1.40;;;17.40;76.40;;;;;;5060405;28;20036;-65
2023/09/19 02:37:49;;;;;;;4.63;1.30;;;17.40;76.30;;;;;;5052252;28;20054;-64
2023/09/19 02:40:25;;;;;;;2.65;1.50;;;17.40;76.00;;;;;;5062512;28;20020;-67
2023/09/19 02:42:55;;;;;;;2.38;0.80;;;17.30;76.00;;;;;;5065920;28;20021;-68
2023/09/19 02:45:22;;;;;;;3.67;1.75;;;17.30;75.70;;;;;;5048820;28;20430;-66
2023/09/19 02:47:49;;;;;;;3.88;1.67;;;17.30;76.10;;;;;;5063574;28;20658;-64
2023/09/19 02:50:16;;;;;;;1.67;0.75;;;17.30;75.50;;;;;;5065878;28;20020;-65
2023/09/19 02:52:47;;;;;;;1.63;0.60;;;17.30;75.70;;;;;;5060576;28;20048;-65
2023/09/19 02:55:17;;;;;;;1.90;1.35;;;17.30;75.60;;;;;;5060582;28;20021;-65
2023/09/19 02:57:54;;;;;;;2.42;0.68;;;17.30;75.40;;;;;;5066018;28;20063;-65
2023/09/19 03:00:21;;;;;;;1.60;0.90;;;17.20;75.30;;;;;;5063975;28;20017;-65
2023/09/19 03:02:56;;;;;;;1.55;0.88;;;17.20;75.10;;;;;;5061510;28;20031;-64
2023/09/19 03:05:23;;;;;;;2.83;0.73;;;17.20;75.10;;;;;;5059688;28;20021;-65
2023/09/19 03:07:52;;;;;;;5.25;1.40;;;17.20;75.20;;;;;;5059178;28;20111;-65
2023/09/19 03:10:21;;;;;;;1.15;0.70;;;17.10;75.00;;;;;;5061524;28;20028;-65
2023/09/19 03:12:50;;;;;;;3.60;1.63;;;17.10;74.90;;;;;;5065025;28;20387;-65
2023/09/19 03:15:16;;;;;;;2.83;0.82;;;17.20;74.80;;;;;;5061391;28;20062;-65
2023/09/19 03:17:47;;;;;;;0.73;0.63;;;17.20;74.50;;;;;;5056274;28;20082;-65
2023/09/19 03:20:17;;;;;;;2.30;1.05;;;17.10;74.60;;;;;;5062405;28;20496;-65
2023/09/19 03:22:43;;;;;;;2.67;0.95;;;17.00;74.50;;;;;;5066496;28;20486;-65
2023/09/19 03:25:11;;;;;;;1.08;0.95;;;17.00;74.60;;;;;;5057424;28;20033;-66
2023/09/19 03:27:38;;;;;;;5.85;0.88;;;17.00;74.50;;;;;;5028198;28;20067;-65
2023/09/19 03:30:08;;;;;;;3.40;1.20;;;16.90;74.70;;;;;;5057816;28;20024;-65
2023/09/19 03:32:43;;;;;;;3.72;0.90;;;16.90;74.50;;;;;;5057535;28;20044;-64
2023/09/19 03:35:11;;;;;;;3.33;1.35;;;16.80;74.50;;;;;;5039897;28;20040;-65
2023/09/19 03:37:36;;;;;;;3.28;1.83;;;16.80;74.30;;;;;;5053634;28;20033;-65
2023/09/19 03:40:04;;;;;;;3.13;0.98;;;16.80;74.40;;;;;;5058066;28;20029;-65
2023/09/19 03:42:31;;;;;;;2.40;0.82;;;16.70;74.00;;;;;;5064467;28;20058;-65
2023/09/19 03:44:57;;;;;;;6.63;1.25;;;16.80;74.00;;;;;;5047503;28;20020;-65
2023/09/19 03:47:23;;;;;;;1.10;0.70;;;16.80;74.10;;;;;;5051253;28;20373;-65
2023/09/19 03:49:49;;;;;;;3.70;1.13;;;16.70;74.20;;;;;;5063668;28;20428;-65
2023/09/19 03:52:15;;;;;;;1.30;0.65;;;16.70;74.00;;;;;;5069795;28;20074;-65
2023/09/19 03:54:41;;;;;;;1.27;0.70;;;16.80;73.90;;;;;;5068218;28;20104;-68
2023/09/19 03:57:07;;;;;;;3.25;1.25;;;16.80;73.60;;;;;;5051481;28;20119;-68
2023/09/19 03:59:33;;;;;;;6.13;0.85;;;16.80;72.90;;;;;;5040707;28;20039;-70
2023/09/19 04:01:59;;;;;;;2.78;1.27;;;16.70;73.20;;;;;;5066333;28;20044;-70
2023/09/19 04:04:25;;;;;;;8.07;1.92;;;16.70;72.80;;;;;;5047340;28;20115;-65
2023/09/19 04:06:54;;;;;;;2.03;0.90;;;16.70;73.30;;;;;;5052633;28;20119;-65
2023/09/19 04:09:19;;;;;;;5.38;1.60;;;16.70;73.00;;;;;;5068473;28;20399;-65
2023/09/19 04:11:45;;;;;;;3.03;1.25;;;16.70;72.60;;;;;;5065636;28;20032;-65
2023/09/19 04:14:11;;;;;;;3.00;0.88;;;16.70;72.70;;;;;;5070061;28;20089;-67
2023/09/19 04:16:36;;;;;;;1.83;0.88;;;16.70;72.90;;;;;;5070390;28;20052;-65
2023/09/19 04:19:03;;;;;;;3.45;1.05;;;16.70;72.60;;;;;;5066569;28;20391;-67
2023/09/19 04:21:29;;;;;;;3.50;1.00;;;16.60;72.10;;;;;;5069465;28;20119;-65
2023/09/19 04:23:55;;;;;;;3.50;1.00;;;16.50;72.20;;;;;;5069167;28;20121;-67
2023/09/19 04:26:21;;;;;;;8.40;1.30;;;16.40;72.10;;;;;;5067028;28;20050;-65
2023/09/19 04:28:47;;;;;;;0.95;0.85;;;16.40;72.30;;;;;;5068297;28;20024;-68
2023/09/19 04:31:13;;;;;;;2.15;0.55;;;16.50;72.50;;;;;;5068419;28;20037;-68
2023/09/19 04:33:39;;;;;;;4.82;0.70;;;16.50;72.50;;;;;;5069369;28;20058;-68
2023/09/19 04:36:07;;;;;;;2.42;1.08;;;16.50;72.30;;;;;;5069542;28;20033;-68
2023/09/19 04:38:33;;;;;;;3.67;1.10;;;16.50;71.60;;;;;;5051019;28;20576;-68
2023/09/19 04:40:59;;;;;;;2.55;1.23;;;16.40;71.90;;;;;;5067455;28;20021;-65
2023/09/19 04:43:25;;;;;;;1.02;0.77;;;16.40;71.80;;;;;;5069691;28;20032;-65
2023/09/19 04:45:55;;;;;;;3.00;1.02;;;16.40;72.00;;;;;;5051084;28;20473;-65
2023/09/19 04:48:24;;;;;;;3.13;1.13;;;16.40;71.90;;;;;;5067144;28;20021;-67
2023/09/19 04:50:50;;;;;;;6.28;1.00;;;16.40;71.60;;;;;;5066391;28;20037;-65
2023/09/19 04:53:18;;;;;;;3.08;1.10;;;16.40;71.80;;;;;;5067928;28;20040;-65
2023/09/19 04:55:44;;;;;;;1.63;1.02;;;16.30;71.80;;;;;;5068374;28;20122;-65
2023/09/19 04:58:10;;;;;;;2.92;1.23;;;16.30;72.00;;;;;;5049547;28;20111;-65
2023/09/19 05:00:36;;;;;;;3.00;1.33;;;16.30;72.10;;;;;;5069370;28;20028;-65
2023/09/19 05:03:04;;;;;;;1.52;1.13;;;16.30;72.10;;;;;;5063778;28;20028;-65
2023/09/19 05:05:29;;;;;;;0.93;0.40;;;16.30;72.20;;;;;;5068272;28;20479;-65
2023/09/19 05:07:55;;;;;;;2.55;1.35;;;16.30;72.30;;;;;;5069604;28;20033;-65
2023/09/19 05:10:21;;;;;;;3.50;0.88;;;16.30;72.10;;;;;;5068767;28;20399;-65
2023/09/19 05:12:48;;;;;;;4.85;0.80;;;16.30;72.10;;;;;;5066801;28;20027;-65
2023/09/19 05:15:17;;;;;;;3.95;0.90;;;16.20;72.20;;;;;;5068204;28;20391;-65
2023/09/19 05:17:51;;;;;;;4.15;0.98;;;16.30;72.20;;;;;;5066889;28;20032;-65
2023/09/19 05:20:24;;;;;;;6.85;0.82;;;16.30;72.10;;;;;;5066585;28;20021;-67
2023/09/19 05:23:05;;;;;;;1.88;0.93;;;16.30;72.40;;;;;;5063907;28;20060;-65
2023/09/19 05:25:39;;;;;;;6.13;1.25;;;16.30;72.40;;;;;;5064427;28;20017;-66
2023/09/19 05:28:07;;;;;;;3.15;0.93;;;16.30;72.30;;;;;;5063444;28;20032;-65
2023/09/19 05:30:33;;;;;;;1.27;0.73;;;16.30;72.50;;;;;;5067016;28;20029;-65
2023/09/19 05:32:59;;;;;;;2.03;1.00;;;16.40;72.70;;;;;;5063717;28;20060;-65
2023/09/19 05:35:26;;;;;;;0.95;0.90;;;16.40;72.70;;;;;;5042568;28;20383;-64
2023/09/19 05:37:52;;;;;;;2.55;0.90;;;16.40;72.80;;;;;;5062439;28;20682;-65
2023/09/19 05:40:19;;;;;;;2.05;0.63;;;16.40;72.70;;;;;;5042063;28;20047;-65
2023/09/19 05:42:46;;;;;;;2.97;0.65;;;16.40;72.70;;;;;;5028537;28;20271;-65
2023/09/19 05:45:13;;;;;;;2.05;1.10;;;16.50;72.70;;;;;;5056744;28;21017;-65
2023/09/19 05:47:43;;;;;;;5.65;1.10;;;16.50;72.70;;;;;;5041452;28;20028;-65
2023/09/19 05:50:09;;;;;;;2.40;0.90;;;16.50;72.90;;;;;;5063968;28;20040;-65
2023/09/19 05:52:38;;;;;;;1.40;0.65;;;16.50;72.90;;;;;;5063564;28;20103;-65
2023/09/19 05:55:08;;;;;;;2.65;1.00;;;16.50;72.90;;;;;;5065652;28;20068;-65
2023/09/19 05:57:34;;;;;;;3.20;0.85;;;16.50;72.90;;;;;;5050661;28;20123;-65
2023/09/19 06:00:00;;;;;;;1.50;0.82;;;16.50;73.00;;;;;;5062660;28;20052;-65
2023/09/19 06:02:29;;;;;;;1.90;1.08;;;16.60;73.00;;;;;;5065897;28;20440;-65
2023/09/19 06:04:55;;;;;;;2.45;1.00;;;16.50;73.00;;;;;;5063371;28;20032;-65
2023/09/19 06:07:25;;;;;;;5.65;1.00;;;16.50;73.20;;;;;;5041306;28;20298;-68
2023/09/19 06:09:53;;;;;;;5.25;0.70;;;16.50;73.20;;;;;;5065243;28;20021;-70
2023/09/19 06:12:19;;;;;;;2.10;0.80;;;16.60;73.30;;;;;;5028879;28;20032;-71
2023/09/19 06:14:45;;;;;;;2.15;0.70;;;16.60;73.40;;;;;;5047782;28;20382;-68
2023/09/19 06:17:10;;;;;;;5.20;1.23;;;16.60;73.40;;;;;;5056880;28;20074;-68
2023/09/19 06:19:36;;;;;;;4.30;1.20;;;16.60;73.40;;;;;;5059870;28;20030;-65
2023/09/19 06:22:02;;;;;;;3.08;0.88;;;16.60;73.50;;;;;;5055599;28;20028;-67
2023/09/19 06:24:28;;;;;;;1.17;0.80;;;16.70;73.60;;;;;;5060395;28;20021;-70
2023/09/19 06:26:54;;;;;;;2.15;0.63;;;16.70;73.60;;;;;;5056779;28;20036;-70
2023/09/19 06:29:23;;;;;;;4.47;0.88;;;16.70;73.60;;;;;;5065267;28;20024;-70
2023/09/19 06:31:48;;;;;;;7.28;1.17;;;16.70;73.50;;;;;;5061087;28;20059;-70
2023/09/19 06:34:15;;;;;;;1.27;0.70;;;16.80;73.60;;;;;;5056654;28;20033;-70
2023/09/19 06:36:41;;;;;;;1.77;0.60;;;16.80;73.70;;;;;;5061377;28;20483;-70
2023/09/19 06:39:10;;;;;;;3.67;1.65;;;16.80;73.80;;;;;;5060156;28;20024;-65
2023/09/19 06:41:38;;;;;;;2.38;1.02;;;16.80;73.80;;;;;;5059421;28;20029;-65
2023/09/19 06:44:05;;;;;;;4.28;0.95;;;16.80;74.00;;;;;;5066138;28;20024;-68
2023/09/19 06:46:34;;;;;;;3.00;1.85;;;16.90;74.00;;;;;;5059820;28;20115;-70
2023/09/19 06:49:06;;;;;;;3.17;1.10;;;16.90;74.10;;;;;;5060824;28;20025;-68
2023/09/19 06:51:34;;;;;;;4.47;2.05;;;16.90;74.10;;;;;;5058017;28;20051;-68
2023/09/19 06:54:01;;;;;;;1.88;0.93;;;17.00;74.20;;;;;;5053307;28;20036;-68
2023/09/19 06:56:27;;;;;;;3.80;1.75;;;17.00;74.20;;;;;;5063334;28;20433;-67
2023/09/19 06:58:53;;;;;;;4.78;0.93;;;17.00;74.30;;;;;;5013111;28;20029;-68
2023/09/19 07:01:21;;;;;;;3.97;0.88;;;17.00;74.40;;;;;;5031648;28;20450;-67
2023/09/19 07:03:47;;;;;;;3.22;1.45;;;17.00;74.60;;;;;;5040268;28;20029;-68
2023/09/19 07:06:13;;;;;;;3.15;1.20;;;17.00;74.70;;;;;;5029943;28;20028;-68
2023/09/19 07:08:39;;;;;;;2.67;1.05;;;17.00;74.50;;;;;;5046998;28;20427;-68
2023/09/19 07:11:06;;;;;;;2.83;0.98;;;17.00;74.80;;;;;;5061085;28;20408;-68
2023/09/19 07:13:32;;;;;;;2.05;0.90;;;17.10;75.00;;;;;;5015484;28;20535;-68
2023/09/19 07:15:59;;;;;;;4.50;1.95;;;17.10;74.90;;;;;;5061296;28;20028;-68
2023/09/19 07:18:25;;;;;;;5.90;0.88;;;17.20;74.80;;;;;;5063420;28;20048;-68
2023/09/19 07:20:51;;;;;;;7.05;2.38;;;17.30;74.80;;;;;;5046271;28;20398;-68
2023/09/19 07:23:22;;;;;;;2.08;0.90;;;17.30;74.70;;;;;;5065214;28;20128;-68
2023/09/19 07:25:48;;;;;;;5.18;0.80;;;17.30;74.70;;;;;;5062158;28;20020;-68
2023/09/19 07:28:15;;;;;;;3.30;0.70;;;17.30;75.30;;;;;;5065331;28;20039;-66
2023/09/19 07:30:41;;;;;;;4.63;1.40;;;17.40;74.60;;;;;;5064402;28;20046;-69
2023/09/19 07:33:11;;;;;;;2.58;1.25;;;17.40;74.30;;;;;;5066490;28;20051;-69
2023/09/19 07:35:42;;;;;;;2.75;1.25;;;17.50;74.30;;;;;;5047863;28;20042;-70
2023/09/19 07:38:10;;;;;;;2.92;0.70;;;17.50;74.40;;;;;;5062645;28;20060;-69
2023/09/19 07:40:36;;;;;;;2.35;1.13;;;17.50;74.00;;;;;;5061403;28;20453;-66
2023/09/19 07:43:03;;;;;;;1.77;0.90;;;17.50;74.20;;;;;;5045679;28;20815;-66
2023/09/19 07:45:30;;;;;;;1.70;0.63;;;17.50;74.10;;;;;;5047260;28;20492;-67
2023/09/19 07:47:56;;;;;;;3.72;1.00;;;17.60;74.30;;;;;;5043881;28;20086;-67
2023/09/19 07:50:22;;;;;;;6.32;1.27;;;17.70;74.10;;;;;;5062331;28;20434;-68
2023/09/19 07:52:52;;;;;;;2.72;1.17;;;17.70;73.70;;;;;;5064466;28;20385;-66
2023/09/19 07:55:25;;;;;;;3.28;1.42;;;17.80;73.80;;;;;;5062617;28;20024;-68
2023/09/19 07:57:52;;;;;;;2.90;1.58;;;17.80;73.60;;;;;;5060585;28;20128;-66
2023/09/19 08:00:18;;;;;;;3.40;1.27;;;17.90;73.50;;;;;;5065030;28;20025;-68
2023/09/19 08:02:44;;;;;;;5.28;1.65;;;17.80;73.20;;;;;;5065398;28;20104;-68
2023/09/19 08:05:17;;;;;;;1.52;1.02;;;17.80;73.60;;;;;;5044642;28;20669;-68
2023/09/19 08:07:52;;;;;;;0.80;0.80;;;17.80;73.50;;;;;;5061402;28;20029;-70
2023/09/19 08:10:19;;;;;;;3.03;0.90;;;17.90;73.70;;;;;;5058789;28;20424;-68
2023/09/19 08:12:46;;;;;;;1.05;0.70;;;18.00;73.40;;;;;;5040514;28;20593;-68
2023/09/19 08:15:21;;;;;;;1.15;1.02;;;18.10;73.20;;;;;;5062069;28;20032;-68
2023/09/19 08:17:53;;;;;;;4.50;1.80;;;18.20;72.60;;;;;;5048004;28;20095;-66
2023/09/19 08:20:19;;;;;;;3.17;1.23;;;18.20;73.10;;;;;;5060447;28;20033;-69
2023/09/19 08:22:54;;;;;;;3.95;1.70;;;18.30;73.00;;;;;;5056441;28;20037;-69
2023/09/19 08:25:25;;;;;;;5.28;1.08;;;18.40;72.40;;;;;;5041692;28;20047;-69
2023/09/19 08:27:51;;;;;;;7.85;0.85;;;18.40;72.50;;;;;;5059703;28;20025;-69
2023/09/19 08:30:24;;;;;;;3.13;0.95;;;18.50;72.80;;;;;;5062608;28;20036;-69
2023/09/19 08:33:07;;;;;;;6.00;1.50;;;18.60;72.40;;;;;;5063400;28;20063;-69
2023/09/19 08:35:33;;;;;;;4.70;1.63;;;18.60;71.90;;;;;;5068099;28;20047;-68
2023/09/19 08:38:03;;;;;;;4.05;1.48;;;18.60;71.90;;;;;;5066691;28;20488;-68
2023/09/19 08:40:33;;;;;;;4.97;1.10;;;18.70;72.10;;;;;;5061865;28;20032;-68
2023/09/19 08:43:00;;;;;;;6.88;2.05;;;18.70;72.10;;;;;;5066740;28;20479;-69
2023/09/19 08:45:29;;;;;;;9.73;1.83;;;18.70;71.60;;;;;;5066826;28;20024;-68
2023/09/19 08:48:01;;;;;;;2.80;0.82;;;18.70;71.70;;;;;;5065331;28;20032;-68
2023/09/19 08:50:29;;;;;;;4.28;1.95;;;18.80;71.90;;;;;;5063885;28;20406;-69
2023/09/19 08:52:57;;;;;;;3.63;1.20;;;18.80;72.00;;;;;;5061595;28;20017;-68
2023/09/19 08:55:28;;;;;;;2.67;0.90;;;18.90;71.70;;;;;;5050658;28;20044;-68
2023/09/19 08:58:04;;;;;;;6.63;1.50;;;19.00;71.50;;;;;;5068669;28;20127;-68
2023/09/19 09:00:31;;;;;;;3.20;1.08;;;19.10;71.30;;;;;;5056439;28;20059;-69
2023/09/19 09:02:58;;;;;;;1.65;0.75;;;19.10;71.20;;;;;;5062601;28;20470;-66
2023/09/19 09:05:26;;;;;;;5.30;1.63;;;19.20;71.30;;;;;;5057776;28;20448;-68
2023/09/19 09:07:52;;;;;;;5.88;1.40;;;19.40;70.30;;;;;;5058665;28;20126;-68
2023/09/19 09:10:22;;;;;;;2.17;0.85;;;19.30;69.80;;;;;;5041825;28;20088;-69
2023/09/19 09:12:54;;;;;;;1.23;0.93;;;19.20;70.30;;;;;;5059309;28;20471;-68
2023/09/19 09:15:23;;;;;;;2.65;1.05;;;19.20;70.20;;;;;;5039283;28;20032;-68
2023/09/19 09:17:50;;;;;;;1.45;0.63;;;19.20;70.30;;;;;;5056276;28;20106;-68
2023/09/19 09:20:18;;;;;;;2.63;1.00;;;19.20;70.10;;;;;;5040996;28;20144;-68
2023/09/19 09:22:55;;;;;;;6.18;1.50;;;19.40;69.70;;;;;;5048823;28;20043;-68
2023/09/19 09:25:24;;;;;;;6.13;0.95;;;19.50;69.20;;;;;;5042998;28;20167;-66
2023/09/19 09:28:02;;;;;;;2.58;0.93;;;19.50;69.40;;;;;;5064784;28;20044;-66
2023/09/19 09:30:37;;;;;;;7.60;1.40;;;19.70;68.20;;;;;;5026343;28;20037;-66
2023/09/19 09:33:13;;;;;;;5.63;1.30;;;19.80;68.30;;;;;;5021443;28;20049;-66
2023/09/19 09:36:00;;;;;;;2.55;1.08;;;20.00;68.40;;;;;;5056105;28;20032;-66
2023/09/19 09:38:43;;;;;;;2.45;1.48;;;20.10;68.30;;;;;;5056901;28;20044;-66
2023/09/19 09:41:09;;;;;;;4.00;1.48;;;20.30;67.10;;;;;;5059784;28;20028;-66
2023/09/19 09:43:38;;;;;;;4.15;1.23;;;20.40;66.10;;;;;;5041184;28;20119;-66
2023/09/19 09:49:16;;;;;;;3.90;1.30;;;20.60;65.50;;;;;;5062072;28;20037;-68
2023/09/19 09:51:57;;;;;;;10.23;1.77;;;20.60;65.00;;;;;;5056813;28;20014;-68
2023/09/19 09:54:23;;;;;;;3.97;1.33;;;20.60;64.90;;;;;;5040448;28;20031;-68
2023/09/19 09:57:21;;;;;;;2.58;1.10;;;20.60;64.80;;;;;;5045974;28;20040;-68
2023/09/19 09:59:59;;;;;;;1.85;0.88;;;20.60;64.40;;;;;;5062257;28;20128;-68
2023/09/19 10:02:36;;;;;;;2.50;1.48;;;20.60;64.50;;;;;;5060280;28;20528;-68
2023/09/19 10:07:55;;;;;;;5.95;1.38;;;20.90;63.30;;;;;;5055937;28;20033;-68
2023/09/19 10:10:43;;;;;;;2.33;1.00;;;21.00;63.70;;;;;;5056447;28;20435;-68
2023/09/19 10:13:13;;;;;;;1.70;1.17;;;21.20;62.80;;;;;;5058079;28;20059;-68
2023/09/19 10:15:46;;;;;;;3.35;1.23;;;21.20;63.20;;;;;;5056886;28;20442;-67
2023/09/19 10:18:18;;;;;;;3.90;1.10;;;21.30;62.50;;;;;;5057450;28;20115;-68
2023/09/19 10:20:45;;;;;;;2.75;1.27;;;21.30;62.40;;;;;;5058950;28;20077;-67
2023/09/19 10:23:17;;;;;;;3.95;1.80;;;21.20;62.00;;;;;;5039033;28;20037;-68
2023/09/19 10:25:47;;;;;;;3.78;0.63;;;21.30;62.60;;;;;;5057268;28;20037;-67
2023/09/19 10:28:14;;;;;;;2.17;1.10;;;21.60;62.60;;;;;;5060571;28;20072;-68
2023/09/19 10:30:45;;;;;;;4.32;1.17;;;21.90;62.50;;;;;;5054907;28;20029;-67
2023/09/19 10:33:12;;;;;;;6.32;1.80;;;22.20;61.00;;;;;;5055088;28;20086;-68
2023/09/19 10:35:41;;;;;;;2.33;0.90;;;22.30;60.20;;;;;;5023469;28;20033;-68
2023/09/19 10:38:09;;;;;;;3.38;1.30;;;22.10;60.10;;;;;;5037313;28;20039;-68
2023/09/19 10:40:36;;;;;;;4.38;1.02;;;21.90;60.60;;;;;;5057602;28;20028;-67
2023/09/19 10:43:07;;;;;;;6.78;1.40;;;21.70;61.40;;;;;;5039505;28;20029;-67
2023/09/19 10:45:34;;;;;;;3.15;1.20;;;21.60;61.50;;;;;;5052235;28;20055;-67
2023/09/19 10:48:05;;;;;;;3.70;1.10;;;21.40;61.40;;;;;;5055593;28;20024;-67
2023/09/19 10:50:36;;;;;;;2.85;0.82;;;21.30;61.90;;;;;;5059167;28;20043;-67
2023/09/19 10:53:08;;;;;;;3.40;1.42;;;21.30;62.20;;;;;;5055618;28;20020;-67
2023/09/19 10:55:35;;;;;;;5.28;1.80;;;21.20;62.00;;;;;;5056526;28;20115;-67
2023/09/19 10:58:09;;;;;;;3.03;1.30;;;21.10;62.40;;;;;;5051603;28;20097;-67
2023/09/19 11:00:52;;;;;;;4.43;1.05;;;21.10;62.40;;;;;;5055818;28;20491;-67
2023/09/19 11:03:20;;;;;;;1.85;0.95;;;21.00;62.60;;;;;;5054631;28;20531;-67
2023/09/19 11:06:18;;;;;;;1.33;1.17;;;20.80;63.10;;;;;;5059025;28;20424;-67
2023/09/19 11:11:39;;;;;;;1.67;1.23;;;20.80;64.30;;;;;;5058598;28;20032;-67
2023/09/19 11:14:37;;;;;;;2.92;1.13;;;20.70;64.10;;;;;;5054319;28;20091;-67
2023/09/19 11:17:05;;;;;;;5.07;1.27;;;20.70;64.60;;;;;;5048064;28;20045;-67
2023/09/19 11:23:04;;;;;;;2.00;1.20;;;20.70;64.30;;;;;;5028897;28;20496;-66
2023/09/19 11:25:30;;;;;;;2.17;1.08;;;20.80;64.70;;;;;;5047746;28;20059;-65
2023/09/19 11:28:17;;;;;;;2.85;0.90;;;20.80;64.40;;;;;;5058263;28;20041;-65
2023/09/19 11:30:50;;;;;;;11.50;1.73;;;20.90;64.40;;;;;;5039391;28;20110;-66
2023/09/19 11:33:20;;;;;;;4.80;0.93;;;21.00;64.60;;;;;;5051928;28;20446;-66
2023/09/19 11:36:02;;;;;;;2.00;0.93;;;21.10;63.90;;;;;;5056478;28;20032;-66
2023/09/19 11:38:40;;;;;;;;;;;21.20;63.00;;;;;;5054009;28;20388;-66
2023/09/19 11:41:25;;;;;;;2.67;1.02;;;21.20;63.50;;;;;;5059217;28;19970;-66
2023/09/19 11:44:17;;;;;;;3.35;1.00;;;21.20;62.80;;;;;;5061125;28;20134;-66
2023/09/19 11:46:56;;;;;;;2.65;0.82;;;21.20;62.70;;;;;;5054575;28;20033;-66
2023/09/19 11:49:31;;;;;;;2.53;0.80;;;21.20;62.70;;;;;;5059637;28;20032;-67
2023/09/19 11:52:02;;;;;;;1.08;0.90;;;21.30;62.90;;;;;;5057007;28;20108;-67
2023/09/19 11:54:31;;;;;;;2.58;1.10;;;21.50;62.30;;;;;;5053598;28;20086;-67
2023/09/19 11:56:57;;;;;;;0.85;0.80;;;21.60;61.30;;;;;;5051678;28;20122;-68
2023/09/19 11:59:27;;;;;;;1.40;0.68;;;21.90;61.10;;;;;;5052624;28;20454;-65
2023/09/19 12:01:57;;;;;;;2.33;1.10;;;22.10;59.30;;;;;;5040522;28;20079;-66
2023/09/19 12:04:43;;;;;;;3.80;1.35;;;22.10;59.00;;;;;;5055788;28;20696;-65
2023/09/19 12:07:14;;;;;;;3.47;1.10;;;22.20;59.50;;;;;;5059796;28;20037;-67
2023/09/19 12:09:45;;;;;;;3.63;1.17;;;22.20;59.30;;;;;;5055979;28;20033;-65
2023/09/19 12:12:19;;;;;;;1.83;0.68;;;22.10;59.60;;;;;;5056138;28;20033;-66
2023/09/19 12:14:49;;;;;;;2.00;0.57;;;21.90;58.90;;;;;;5051878;28;20036;-65
2023/09/19 12:17:14;;;;;;;0.52;0.40;;;22.00;59.50;;;;;;5042279;28;20033;-66
2023/09/19 12:19:56;;;;;;;1.80;0.98;;;22.10;59.80;;;;;;5045572;28;20031;-66
2023/09/19 12:22:22;;;;;;;2.75;0.98;;;22.20;58.90;;;;;;5058340;28;20475;-66
2023/09/19 12:24:48;;;;;;;2.30;0.68;;;22.40;58.30;;;;;;5057532;28;20142;-68
2023/09/19 12:27:14;;;;;;;1.45;0.70;;;22.60;58.60;;;;;;5057058;28;20120;-68
2023/09/19 12:29:54;;;;;;;2.17;0.80;;;22.70;58.30;;;;;;5055679;28;20029;-68
2023/09/19 12:32:34;;;;;;;2.00;0.82;;;22.90;58.10;;;;;;5047970;28;20101;-68
2023/09/19 12:35:07;;;;;;;2.17;0.70;;;22.90;57.20;;;;;;5042448;28;20387;-68
2023/09/19 12:37:36;;;;;;;5.57;0.80;;;23.10;57.00;;;;;;5045241;28;20036;-67
2023/09/19 12:40:17;;;;;;;1.88;0.70;;;23.00;56.60;;;;;;5063810;28;20082;-67
2023/09/19 12:42:48;;;;;;;1.92;0.55;;;22.70;57.00;;;;;;5058533;28;20032;-67
2023/09/19 12:45:16;;;;;;;2.67;1.00;;;22.50;58.10;;;;;;5056796;28;20027;-67
2023/09/19 12:48:34;;;;;;;0.95;0.77;;;22.30;58.40;;;;;;5041141;28;20283;-66
2023/09/19 12:51:12;;;;;;;0.77;0.77;;;22.00;58.40;;;;;;5052809;28;20453;-66
2023/09/19 12:53:50;;;;;;;0.95;0.55;;;21.80;59.20;;;;;;5058848;28;20034;-66
2023/09/19 12:56:18;;;;;;;3.35;0.63;;;21.70;59.20;;;;;;5042980;28;20039;-68
2023/09/19 12:58:56;;;;;;;3.50;0.85;;;21.70;59.60;;;;;;5061071;28;20024;-68
2023/09/19 13:01:27;;;;;;;2.22;0.47;;;21.60;60.00;;;;;;5039713;28;20028;-68
2023/09/19 13:04:30;;;;;;;0.68;0.50;;;21.60;60.20;;;;;;5059487;28;20073;-66
2023/09/19 13:07:00;;;;;;;1.42;0.52;;;21.50;59.80;;;;;;5025614;28;20461;-67
2023/09/19 13:09:38;;;;;;;0.85;0.40;;;21.50;59.80;;;;;;5042806;28;20391;-66
2023/09/19 13:12:06;;;;;;;7.45;0.93;;;21.40;60.30;;;;;;5057660;28;20080;-66
2023/09/19 13:14:37;;;;;;;0.95;0.80;;;21.40;60.70;;;;;;5036171;28;20041;-66
2023/09/19 13:17:04;;;;;;;2.75;1.20;;;21.30;60.70;;;;;;5043926;28;20154;-66